Time;durP1;ratioP1;P1;durP2;ratioP2;P2;SDS_P1;SDS_P2;PMS_P1;PMS_P2;Temp;Humidity;BMP_temperature;BMP_pressure;BME280_temperature;BME280_humidity;BME280_pressure;Samples;Min_cycle;Max_cycle;Signal;HPM_P1;HPM_P2
2023/09/24 00:02:49;;;;;;;5.57;5.07;;;;;;;13.76;100.00;102039.75;6014763;29;20230;-66
2023/09/24 00:06:11;;;;;;;8.23;7.53;;;;;;;13.86;100.00;102042.53;6012399;29;20824;-67
2023/09/24 00:09:33;;;;;;;6.77;6.07;;;;;;;13.80;100.00;102046.63;6013783;29;20235;-67
2023/09/24 00:12:54;;;;;;;5.80;5.20;;;;;;;13.81;100.00;102052.91;6019355;29;20230;-67
2023/09/24 00:16:14;;;;;;;4.90;4.50;;;;;;;13.77;100.00;102062.28;6015483;29;22185;-66
2023/09/24 00:19:35;;;;;;;5.50;5.00;;;;;;;13.82;100.00;102058.19;6014272;29;20321;-67
2023/09/24 00:22:58;;;;;;;6.33;5.60;;;;;;;13.76;100.00;102069.56;6014735;29;20238;-68
2023/09/24 00:26:19;;;;;;;6.73;5.40;;;;;;;13.76;100.00;102063.25;6013745;29;20242;-67
2023/09/24 00:29:42;;;;;;;4.80;4.40;;;;;;;13.59;100.00;102064.66;6011989;29;20262;-67
2023/09/24 00:33:04;;;;;;;6.17;4.60;;;;;;;13.52;100.00;102076.97;6015089;29;22784;-66
2023/09/24 00:36:25;;;;;;;5.40;4.93;;;;;;;13.51;100.00;102073.44;6000176;29;20323;-67
2023/09/24 00:39:47;;;;;;;6.07;5.47;;;;;;;13.54;100.00;102084.00;6003122;29;20238;-66
2023/09/24 00:43:27;;;;;;;9.23;5.30;;;;;;;13.54;100.00;102083.13;6017701;29;20688;-66
2023/09/24 00:46:49;;;;;;;5.87;5.10;;;;;;;13.50;100.00;102085.25;6008931;29;20262;-67
2023/09/24 00:50:12;;;;;;;5.33;4.83;;;;;;;13.52;100.00;102085.09;6013755;29;20250;-67
2023/09/24 00:53:34;;;;;;;6.27;5.13;;;;;;;13.51;100.00;102088.81;6016114;29;20348;-67
2023/09/24 00:56:58;;;;;;;6.93;5.10;;;;;;;13.45;100.00;102094.75;6001238;29;20243;-66
2023/09/24 01:00:22;;;;;;;7.93;5.77;;;;;;;13.34;100.00;102103.72;6011260;29;20227;-66
2023/09/24 01:03:46;;;;;;;5.17;4.77;;;;;;;13.34;100.00;102108.28;6013479;29;20234;-67
2023/09/24 01:07:07;;;;;;;6.50;5.00;;;;;;;13.39;100.00;102114.19;6010700;29;20239;-67
2023/09/24 01:10:28;;;;;;;4.93;4.43;;;;;;;13.44;100.00;102114.69;6013218;29;20321;-66
2023/09/24 01:13:51;;;;;;;6.07;5.23;;;;;;;13.41;100.00;102114.94;6013123;29;20235;-68
2023/09/24 01:17:12;;;;;;;4.03;3.73;;;;;;;13.46;100.00;102115.41;6012451;29;20680;-67
2023/09/24 01:20:33;;;;;;;7.33;5.00;;;;;;;13.43;100.00;102115.69;6011972;29;20614;-67
2023/09/24 01:23:59;;;;;;;5.60;4.30;;;;;;;13.30;100.00;102123.94;6013773;29;20238;-66
2023/09/24 01:27:21;;;;;;;9.33;4.87;;;;;;;13.28;100.00;102122.31;6012260;29;20251;-67
2023/09/24 01:30:44;;;;;;;5.80;5.30;;;;;;;13.18;100.00;102132.16;5999345;29;20251;-68
2023/09/24 01:34:08;;;;;;;6.10;4.73;;;;;;;13.22;100.00;102133.66;6015311;29;20590;-67
2023/09/24 01:37:29;;;;;;;6.60;5.03;;;;;;;13.30;100.00;102134.75;6012683;29;20511;-66
2023/09/24 01:40:53;;;;;;;7.43;4.73;;;;;;;13.35;100.00;102142.53;6014299;29;20231;-66
2023/09/24 01:44:16;;;;;;;6.10;5.50;;;;;;;13.30;100.00;102139.31;6013763;29;20230;-66
2023/09/24 01:47:37;;;;;;;5.00;4.07;;;;;;;13.36;100.00;102141.53;6010356;29;20246;-67
2023/09/24 01:50:58;;;;;;;4.87;4.47;;;;;;;13.32;100.00;102140.91;5998807;29;20239;-67
2023/09/24 01:54:19;;;;;;;4.87;4.40;;;;;;;13.32;100.00;102131.91;5984723;29;20230;-66
2023/09/24 01:57:42;;;;;;;5.67;5.13;;;;;;;13.26;100.00;102136.00;6016135;29;20243;-66
2023/09/24 02:01:03;;;;;;;7.97;5.03;;;;;;;13.18;100.00;102138.47;5994675;29;21509;-67
2023/09/24 02:04:24;;;;;;;4.40;4.03;;;;;;;13.30;100.00;102132.06;5999043;29;20242;-66
2023/09/24 02:07:48;;;;;;;5.47;4.97;;;;;;;13.24;100.00;102137.09;6005743;29;20231;-66
2023/09/24 02:11:09;;;;;;;4.90;4.20;;;;;;;13.24;100.00;102143.38;6014204;29;20677;-66
2023/09/24 02:14:31;;;;;;;5.60;4.90;;;;;;;13.25;100.00;102146.94;6015727;29;20234;-66
2023/09/24 02:17:52;;;;;;;9.03;5.17;;;;;;;13.31;100.00;102149.13;6017447;29;20239;-66
2023/09/24 02:21:14;;;;;;;6.63;4.80;;;;;;;13.27;100.00;102161.22;6018623;29;20242;-66
2023/09/24 02:24:35;;;;;;;6.00;5.50;;;;;;;13.22;100.00;102158.03;6018431;29;20327;-66
2023/09/24 02:27:58;;;;;;;7.17;5.17;;;;;;;13.20;100.00;102157.28;6016621;29;20238;-66
2023/09/24 02:31:21;;;;;;;5.57;5.07;;;;;;;13.11;100.00;102156.16;6006581;29;20242;-67
2023/09/24 02:34:44;;;;;;;5.60;4.53;;;;;;;13.05;100.00;102150.38;6016254;29;20250;-66
2023/09/24 02:38:07;;;;;;;4.73;4.33;;;;;;;13.12;100.00;102154.31;6016829;29;20557;-66
2023/09/24 02:41:29;;;;;;;7.77;4.90;;;;;;;13.04;100.00;102149.50;6014644;29;20988;-66
2023/09/24 02:44:50;;;;;;;4.97;4.17;;;;;;;13.10;100.00;102159.00;6013819;29;20309;-66
2023/09/24 02:48:12;;;;;;;4.57;4.17;;;;;;;13.00;100.00;102158.81;6014248;29;20326;-67
2023/09/24 02:51:35;;;;;;;4.57;4.17;;;;;;;13.02;100.00;102159.53;6017787;29;20573;-65
2023/09/24 02:54:56;;;;;;;5.50;4.77;;;;;;;12.99;100.00;102169.75;6014560;29;20251;-66
2023/09/24 02:58:19;;;;;;;7.77;4.83;;;;;;;13.04;100.00;102168.44;6017257;29;20505;-65
2023/09/24 03:01:46;;;;;;;5.13;4.63;;;;;;;12.99;100.00;102175.19;6016867;29;20231;-66
2023/09/24 03:05:11;;;;;;;4.63;4.03;;;;;;;12.99;100.00;102176.03;6013077;29;20238;-66
2023/09/24 03:08:34;;;;;;;6.13;3.37;;;;;;;13.04;100.00;102181.09;6015348;29;20864;-65
2023/09/24 03:11:55;;;;;;;4.30;3.93;;;;;;;13.10;100.00;102184.19;6011859;29;20246;-67
2023/09/24 03:15:16;;;;;;;3.90;3.50;;;;;;;12.97;100.00;102198.81;6017306;29;20222;-67
2023/09/24 03:18:37;;;;;;;5.57;5.00;;;;;;;12.82;100.00;102203.56;6013151;29;20234;-66
2023/09/24 03:22:00;;;;;;;4.73;4.20;;;;;;;12.75;100.00;102211.28;6011764;29;20242;-66
2023/09/24 03:25:22;;;;;;;5.63;4.93;;;;;;;12.82;100.00;102204.44;6016088;29;20239;-66
2023/09/24 03:28:42;;;;;;;5.23;3.13;;;;;;;12.89;100.00;102212.94;6014428;29;20246;-67
2023/09/24 03:32:04;;;;;;;4.93;3.63;;;;;;;12.78;100.00;102219.19;6013394;29;20239;-66
2023/09/24 03:35:27;;;;;;;5.03;4.07;;;;;;;12.85;100.00;102225.81;6013860;29;20282;-67
2023/09/24 03:38:49;;;;;;;5.00;4.50;;;;;;;12.92;100.00;102231.63;6016948;29;20239;-67
2023/09/24 03:42:10;;;;;;;5.77;3.80;;;;;;;12.92;100.00;102233.47;6007795;29;20258;-67
2023/09/24 03:45:31;;;;;;;5.63;4.00;;;;;;;12.85;100.00;102228.53;6017224;29;20258;-66
2023/09/24 03:48:53;;;;;;;4.07;3.67;;;;;;;12.85;100.00;102228.53;5999702;29;20370;-66
2023/09/24 03:52:14;;;;;;;6.83;3.37;;;;;;;12.83;100.00;102235.91;6000906;29;20336;-67
2023/09/24 03:55:37;;;;;;;4.97;4.20;;;;;;;12.78;100.00;102243.53;6013729;29;20238;-66
2023/09/24 03:59:00;;;;;;;5.00;4.00;;;;;;;12.71;100.00;102253.09;6013699;29;20242;-67
2023/09/24 04:02:21;;;;;;;3.83;3.40;;;;;;;12.70;100.00;102258.63;6002090;29;20239;-66
2023/09/24 04:05:41;;;;;;;3.80;3.50;;;;;;;12.70;100.00;102264.88;6013238;29;22023;-65
2023/09/24 04:09:02;;;;;;;3.77;3.37;;;;;;;12.62;100.00;102278.13;6016443;29;20234;-65
2023/09/24 04:12:25;;;;;;;4.00;3.50;;;;;;;12.52;100.00;102273.50;6012253;29;20258;-65
2023/09/24 04:15:46;;;;;;;3.90;3.50;;;;;;;12.63;100.00;102270.88;6016497;29;20235;-66
2023/09/24 04:19:07;;;;;;;11.50;4.23;;;;;;;12.62;100.00;102285.41;6012075;29;20236;-66
2023/09/24 04:22:28;;;;;;;4.03;3.30;;;;;;;12.57;100.00;102284.84;6013457;29;20231;-66
2023/09/24 04:25:51;;;;;;;3.60;3.30;;;;;;;12.64;100.00;102302.38;6016339;29;20242;-67
2023/09/24 04:29:15;;;;;;;4.10;3.77;;;;;;;12.67;100.00;102297.59;6016217;29;25623;-65
2023/09/24 04:32:36;;;;;;;3.87;3.53;;;;;;;12.70;100.00;102310.03;6012222;29;20356;-67
2023/09/24 04:35:57;;;;;;;5.33;3.83;;;;;;;12.58;100.00;102306.38;6014009;29;20250;-67
2023/09/24 04:39:19;;;;;;;3.67;3.37;;;;;;;12.57;100.00;102311.91;6010438;29;20241;-66
2023/09/24 04:42:41;;;;;;;8.87;7.93;;;;;;;12.55;100.00;102314.75;6015070;29;20246;-67
2023/09/24 04:46:05;;;;;;;10.87;4.23;;;;;;;12.59;100.00;102318.94;6012089;29;20235;-67
2023/09/24 04:49:26;;;;;;;3.73;3.43;;;;;;;12.52;100.00;102325.78;6011316;29;20254;-67
2023/09/24 04:52:49;;;;;;;5.80;3.93;;;;;;;12.52;100.00;102336.59;6013945;29;20535;-67
2023/09/24 04:56:10;;;;;;;5.70;3.93;;;;;;;12.34;100.00;102343.34;6017965;29;20264;-67
2023/09/24 04:59:31;;;;;;;3.70;3.40;;;;;;;12.22;100.00;102344.25;6021262;29;20241;-67
2023/09/24 05:02:54;;;;;;;3.93;2.93;;;;;;;12.17;100.00;102345.53;6020817;29;20332;-66
2023/09/24 05:06:15;;;;;;;4.27;3.87;;;;;;;12.14;100.00;102357.44;6018225;29;20226;-66
2023/09/24 05:09:35;;;;;;;3.47;3.07;;;;;;;12.11;100.00;102359.50;6018739;29;20258;-66
2023/09/24 05:12:56;;;;;;;4.13;3.50;;;;;;;12.14;100.00;102362.00;6015914;29;20321;-66
2023/09/24 05:16:19;;;;;;;5.50;4.37;;;;;;;12.10;100.00;102372.16;6015663;29;20234;-66
2023/09/24 05:19:41;;;;;;;4.60;3.70;;;;;;;11.99;100.00;102378.31;6013352;29;20238;-67
2023/09/24 05:23:02;;;;;;;4.33;3.60;;;;;;;11.97;100.00;102382.13;6014596;29;20239;-66
2023/09/24 05:26:23;;;;;;;5.70;4.67;;;;;;;12.01;100.00;102380.94;6015979;29;20246;-66
2023/09/24 05:29:46;;;;;;;4.50;4.13;;;;;;;12.00;100.00;102384.59;6012651;29;20242;-66
2023/09/24 05:33:07;;;;;;;4.70;3.27;;;;;;;12.12;100.00;102397.22;6021048;29;20234;-67
2023/09/24 05:36:29;;;;;;;6.93;5.03;;;;;;;12.15;100.00;102398.84;6017126;29;20645;-67
2023/09/24 05:39:50;;;;;;;6.53;4.53;;;;;;;12.12;100.00;102405.34;5994782;29;20341;-67
2023/09/24 05:43:11;;;;;;;7.97;4.73;;;;;;;12.21;100.00;102410.09;6019153;29;20227;-66
2023/09/24 05:46:32;;;;;;;5.17;4.17;;;;;;;12.30;100.00;102411.28;6015348;29;20309;-66
2023/09/24 05:49:53;;;;;;;3.70;3.40;;;;;;;12.29;100.00;102414.94;6004920;29;20333;-67
2023/09/24 05:53:16;;;;;;;4.37;3.33;;;;;;;12.27;100.00;102423.19;6016341;29;20723;-65
2023/09/24 05:56:37;;;;;;;4.33;3.73;;;;;;;12.33;100.00;102430.00;6019281;29;20254;-67
2023/09/24 05:59:58;;;;;;;4.67;3.40;;;;;;;12.47;100.00;102424.47;6016583;29;20222;-67
2023/09/24 06:03:19;;;;;;;3.43;3.13;;;;;;;12.47;100.00;102422.66;6015049;29;20622;-66
2023/09/24 06:06:41;;;;;;;4.00;3.60;;;;;;;12.43;100.00;102429.22;6015296;29;20251;-67
2023/09/24 06:10:05;;;;;;;3.50;3.13;;;;;;;12.40;100.00;102434.00;6017545;29;20337;-66
2023/09/24 06:13:26;;;;;;;4.20;3.80;;;;;;;12.47;100.00;102438.00;6016760;29;20579;-66
2023/09/24 06:16:47;;;;;;;3.87;3.53;;;;;;;12.39;100.00;102441.22;6020033;29;20538;-66
2023/09/24 06:20:10;;;;;;;5.70;4.00;;;;;;;12.47;100.00;102444.28;6021483;29;20238;-66
2023/09/24 06:23:31;;;;;;;6.43;5.27;;;;;;;12.41;100.00;102455.50;6021557;29;20520;-65
2023/09/24 06:26:54;;;;;;;4.33;3.93;;;;;;;12.44;100.00;102458.00;6022343;29;20234;-67
2023/09/24 06:30:15;;;;;;;6.20;4.53;;;;;;;12.39;100.00;102460.16;6016744;29;20353;-66
2023/09/24 06:33:36;;;;;;;5.17;4.70;;;;;;;12.48;100.00;102470.34;6017053;29;20356;-66
2023/09/24 06:36:56;;;;;;;6.23;5.63;;;;;;;12.36;100.00;102475.75;6015881;29;22103;-66
2023/09/24 06:40:18;;;;;;;6.60;5.17;;;;;;;12.39;100.00;102481.81;6017480;29;20230;-66
2023/09/24 06:43:40;;;;;;;8.87;5.47;;;;;;;12.34;100.00;102483.97;6014735;29;20345;-67
2023/09/24 06:47:01;;;;;;;6.20;5.63;;;;;;;12.26;100.00;102491.78;6018342;29;20621;-67
2023/09/24 06:50:23;;;;;;;7.57;6.70;;;;;;;12.12;100.00;102491.00;6016266;29;20246;-66
2023/09/24 06:53:44;;;;;;;7.27;6.63;;;;;;;12.10;100.00;102491.09;6015157;29;20605;-66
2023/09/24 06:57:05;;;;;;;6.83;6.13;;;;;;;12.24;100.00;102492.84;6019063;29;20238;-67
2023/09/24 07:00:27;;;;;;;7.23;6.53;;;;;;;12.19;100.00;102501.28;6013564;29;20620;-66
2023/09/24 07:03:48;;;;;;;7.03;6.43;;;;;;;12.62;100.00;102513.50;6014370;29;20313;-67
2023/09/24 07:07:09;;;;;;;8.60;7.70;;;;;;;12.79;100.00;102504.19;6014554;29;20242;-64
2023/09/24 07:10:30;;;;;;;8.33;7.57;;;;;;;13.06;100.00;102504.06;6011050;29;20624;-67
2023/09/24 07:13:52;;;;;;;10.60;9.53;;;;;;;12.98;100.00;102501.00;6016395;29;20261;-65
2023/09/24 07:17:15;;;;;;;10.20;9.20;;;;;;;13.22;100.00;102515.50;6017119;29;26156;-67
2023/09/24 07:20:36;;;;;;;9.97;9.07;;;;;;;13.56;100.00;102510.16;6021776;29;20282;-66
2023/09/24 07:23:59;;;;;;;10.70;9.23;;;;;;;13.70;100.00;102513.69;6024001;29;20326;-66
2023/09/24 07:27:20;;;;;;;9.87;8.83;;;;;;;13.46;100.00;102517.25;6022460;29;20262;-67
2023/09/24 07:30:41;;;;;;;11.70;9.70;;;;;;;13.56;100.00;102520.13;6021572;29;20243;-68
2023/09/24 07:34:05;;;;;;;8.17;7.30;;;;;;;13.45;100.00;102529.09;6021967;29;20325;-67
2023/09/24 07:37:26;;;;;;;9.13;8.10;;;;;;;13.34;100.00;102533.53;6018693;29;20795;-68
2023/09/24 07:40:49;;;;;;;7.67;6.97;;;;;;;12.93;100.00;102536.56;6019124;29;20234;-65
2023/09/24 07:44:10;;;;;;;6.70;6.10;;;;;;;12.83;100.00;102544.44;6017588;29;20235;-66
2023/09/24 07:47:31;;;;;;;5.67;5.17;;;;;;;13.43;100.00;102539.13;6024184;29;20250;-66
2023/09/24 07:50:55;;;;;;;5.83;5.27;;;;;;;13.52;100.00;102545.72;6020858;29;20665;-67
2023/09/24 07:54:17;;;;;;;6.33;5.83;;;;;;;12.89;100.00;102554.00;6017529;29;20246;-67
2023/09/24 07:57:38;;;;;;;5.33;4.93;;;;;;;13.00;100.00;102559.47;6019065;29;20261;-65
2023/09/24 08:01:02;;;;;;;6.40;5.67;;;;;;;13.28;100.00;102547.53;6020767;29;20239;-67
2023/09/24 08:04:23;;;;;;;6.67;6.07;;;;;;;13.46;100.00;102562.44;6018217;29;20496;-67
2023/09/24 08:07:46;;;;;;;4.67;4.30;;;;;;;13.27;100.00;102560.22;6011941;29;20539;-67
2023/09/24 08:11:07;;;;;;;5.80;5.30;;;;;;;13.58;100.00;102564.22;6019050;29;20325;-68
2023/09/24 08:14:28;;;;;;;5.73;4.23;;;;;;;13.98;100.00;102562.09;6020257;29;20254;-67
2023/09/24 08:17:49;;;;;;;4.83;4.43;;;;;;;13.81;100.00;102574.22;6016009;29;20242;-65
2023/09/24 08:21:10;;;;;;;6.13;5.63;;;;;;;13.82;100.00;102575.09;6019900;29;20330;-66
2023/09/24 08:24:32;;;;;;;6.67;6.00;;;;;;;14.36;100.00;102582.63;6017279;29;20246;-67
2023/09/24 08:27:53;;;;;;;6.13;5.63;;;;;;;14.63;100.00;102582.31;6019112;29;20239;-66
2023/09/24 08:31:14;;;;;;;5.60;5.10;;;;;;;14.14;100.00;102584.38;6016727;29;20246;-67
2023/09/24 08:34:35;;;;;;;8.80;7.23;;;;;;;14.35;100.00;102586.31;6018281;29;20239;-67
2023/09/24 08:37:57;;;;;;;7.53;6.80;;;;;;;15.25;100.00;102579.16;6011619;29;20242;-71
2023/09/24 08:41:19;;;;;;;7.53;6.93;;;;;;;16.38;99.73;102575.84;6018644;29;20265;-69
2023/09/24 08:44:41;;;;;;;15.87;14.17;;;;;;;15.97;98.56;102582.13;6007834;29;20234;-67
2023/09/24 08:48:07;;;;;;;45.77;43.10;;;;;;;16.26;97.51;102584.22;6007747;29;20246;-72
2023/09/24 08:51:29;;;;;;;13.03;11.70;;;;;;;17.34;93.50;102579.13;6021858;29;20243;-68
2023/09/24 08:54:51;;;;;;;6.67;4.10;;;;;;;17.09;90.24;102580.47;6018549;29;20643;-66
2023/09/24 08:58:13;;;;;;;4.77;4.27;;;;;;;16.25;89.90;102577.91;6017572;29;20267;-67
2023/09/24 09:01:35;;;;;;;7.03;3.90;;;;;;;16.28;91.80;102587.66;6012109;29;20580;-67
2023/09/24 09:04:57;;;;;;;3.30;3.00;;;;;;;16.00;90.96;102586.41;6017057;29;20649;-67
2023/09/24 09:08:18;;;;;;;4.60;3.70;;;;;;;16.00;91.23;102587.28;6022273;29;20541;-68
2023/09/24 09:11:40;;;;;;;4.50;3.30;;;;;;;16.14;90.64;102585.25;6008029;29;20636;-65
2023/09/24 09:15:15;;;;;;;5.17;4.27;;;;;;;16.68;89.81;102594.16;6003589;29;20238;-66
2023/09/24 09:18:37;;;;;;;7.03;4.00;;;;;;;16.31;90.83;102592.88;6018366;29;20317;-66
2023/09/24 09:22:17;;;;;;;7.87;3.27;;;;;;;16.09;91.00;102596.53;6014095;29;20249;-66
2023/09/24 09:25:49;;;;;;;3.55;3.25;;;;;;;16.63;90.76;102593.69;6010775;29;21478;-66
2023/09/24 09:29:21;;;;;;;5.03;3.30;;;;;;;16.97;89.71;102586.16;6021245;29;20230;-66
2023/09/24 09:32:43;;;;;;;4.60;4.07;;;;;;;16.40;89.67;102590.19;6021695;29;20300;-66
2023/09/24 09:36:05;;;;;;;4.57;3.73;;;;;;;16.68;90.13;102580.53;6014339;29;20306;-66
2023/09/24 09:39:26;;;;;;;4.20;3.15;;;;;;;17.17;89.79;102586.09;6021290;29;20243;-66
2023/09/24 09:42:50;;;;;;;3.37;2.93;;;;;;;16.92;89.46;102582.97;6020603;29;20238;-67
2023/09/24 09:46:11;;;;;;;3.23;2.80;;;;;;;17.24;88.50;102591.88;6012912;29;20258;-66
2023/09/24 09:49:36;;;;;;;6.33;4.23;;;;;;;17.29;87.56;102585.00;6009209;29;20230;-66
2023/09/24 09:53:04;;;;;;;3.53;2.80;;;;;;;17.95;86.72;102582.59;6013085;29;20332;-66
2023/09/24 09:56:25;;;;;;;4.18;2.72;;;;;;;18.18;84.83;102581.31;6002560;29;20238;-66
2023/09/24 09:59:47;;;;;;;2.30;2.10;;;;;;;18.53;83.08;102581.63;6001991;29;20246;-66
2023/09/24 10:03:10;;;;;;;4.63;2.13;;;;;;;18.98;81.67;102576.34;6006290;29;20242;-66
2023/09/24 10:06:35;;;;;;;3.33;2.17;;;;;;;18.74;81.93;102573.25;6018286;29;20258;-66
2023/09/24 10:09:55;;;;;;;3.08;1.92;;;;;;;18.76;81.50;102576.69;6019444;29;20242;-67
2023/09/24 10:13:43;;;;;;;3.85;1.90;;;;;;;18.78;80.89;102567.34;6021996;29;20242;-66
2023/09/24 10:17:26;;;;;;;2.30;2.10;;;;;;;17.50;84.01;102582.25;6020105;29;20747;-66
2023/09/24 10:21:03;;;;;;;1.92;1.80;;;;;;;17.87;83.33;102577.88;6018511;29;20235;-66
2023/09/24 10:24:49;;;;;;;3.83;1.45;;;;;;;18.62;80.17;102586.22;6018954;29;20258;-67
2023/09/24 10:28:11;;;;;;;1.75;1.65;;;;;;;19.48;77.91;102577.75;6012309;29;20563;-68
2023/09/24 10:31:32;;;;;;;2.03;1.40;;;;;;;20.84;74.44;102577.31;6018513;29;20869;-66
2023/09/24 10:35:10;;;;;;;4.05;1.63;;;;;;;22.56;66.37;102579.47;6021983;29;20234;-66
2023/09/24 10:39:04;;;;;;;0.73;0.73;;;;;;;23.07;59.61;102583.72;6016461;29;20317;-67
2023/09/24 10:42:27;;;;;;;1.17;1.08;;;;;;;22.94;59.21;102571.38;6007338;29;20235;-67
2023/09/24 10:45:48;;;;;;;1.33;0.90;;;;;;;25.30;52.62;102574.00;6016511;29;20238;-67
2023/09/24 10:49:09;;;;;;;0.63;0.60;;;;;;;21.35;60.46;102590.16;6021470;29;20258;-67
2023/09/24 10:52:30;;;;;;;1.60;0.95;;;;;;;24.63;53.93;102568.69;6016950;29;20242;-66
2023/09/24 10:55:51;;;;;;;1.27;1.02;;;;;;;24.22;53.22;102573.72;6016660;29;20766;-66
2023/09/24 10:59:14;;;;;;;3.63;1.23;;;;;;;27.64;47.49;102559.84;6020821;29;20234;-67
2023/09/24 11:02:35;;;;;;;1.10;0.95;;;;;;;24.23;51.25;102564.38;6017788;29;20230;-66
2023/09/24 11:05:56;;;;;;;3.08;1.67;;;;;;;25.29;51.52;102572.31;6010032;29;20272;-66
2023/09/24 11:09:20;;;;;;;1.13;1.00;;;;;;;23.08;54.79;102577.16;6016469;29;20321;-65
2023/09/24 11:12:48;;;;;;;2.78;0.85;;;;;;;22.88;57.55;102579.47;6018230;29;20238;-66
2023/09/24 11:16:10;;;;;;;1.90;1.20;;;;;;;21.49;60.72;102581.31;6016725;29;20532;-66
2023/09/24 11:19:44;;;;;;;1.85;1.13;;;;;;;19.52;68.46;102594.69;6013887;29;20768;-65
2023/09/24 11:23:09;;;;;;;1.17;1.08;;;;;;;20.48;67.91;102592.16;6019756;29;20226;-67
2023/09/24 11:26:30;;;;;;;1.88;1.23;;;;;;;20.00;67.23;102600.72;6018556;29;20238;-67
2023/09/24 11:29:58;;;;;;;2.58;1.42;;;;;;;19.03;71.51;102607.69;6005252;29;20242;-67
2023/09/24 11:33:21;;;;;;;1.20;1.10;;;;;;;19.23;71.00;102599.41;6021735;29;20246;-66
2023/09/24 11:36:53;;;;;;;1.45;1.33;;;;;;;18.45;73.35;102608.81;5991914;29;20234;-67
2023/09/24 11:40:24;;;;;;;1.08;0.90;;;;;;;18.11;75.05;102608.34;5997280;29;20496;-67
2023/09/24 11:43:57;;;;;;;0.95;0.90;;;;;;;17.41;77.45;102613.03;6001846;29;20633;-67
2023/09/24 11:47:18;;;;;;;2.28;1.52;;;;;;;18.51;75.33;102600.03;6019153;29;20310;-67
2023/09/24 11:50:42;;;;;;;1.77;1.30;;;;;;;16.93;78.81;102612.81;6017280;29;20238;-65
2023/09/24 11:54:03;;;;;;;2.63;2.42;;;;;;;18.57;76.25;102614.97;6007848;29;20246;-67
2023/09/24 11:57:24;;;;;;;3.13;1.83;;;;;;;19.68;68.00;102608.56;6016179;29;20235;-67
2023/09/24 12:00:45;;;;;;;1.45;1.35;;;;;;;17.79;74.18;102615.91;6016480;29;20223;-68
2023/09/24 12:04:06;;;;;;;1.42;1.33;;;;;;;18.72;72.29;102617.13;6000593;29;20238;-67
2023/09/24 12:07:32;;;;;;;1.77;1.65;;;;;;;16.43;78.43;102622.63;6017826;29;20250;-67
2023/09/24 12:10:53;;;;;;;2.05;1.83;;;;;;;16.41;81.51;102615.56;6021589;29;20238;-67
2023/09/24 12:14:13;;;;;;;2.42;2.22;;;;;;;16.90;81.51;102610.34;6014114;29;20321;-67
2023/09/24 12:17:34;;;;;;;2.03;1.92;;;;;;;17.11;82.03;102610.31;6020587;29;20238;-67
2023/09/24 12:20:56;;;;;;;2.45;2.03;;;;;;;17.45;81.35;102614.47;6020165;29;20222;-67
2023/09/24 12:24:19;;;;;;;3.45;2.40;;;;;;;17.27;80.94;102603.34;6020964;29;20242;-67
2023/09/24 12:27:40;;;;;;;2.13;1.92;;;;;;;17.85;79.08;102600.84;6020790;29;20380;-67
2023/09/24 12:31:03;;;;;;;1.85;1.75;;;;;;;19.17;72.57;102594.56;6019523;29;20246;-67
2023/09/24 12:34:23;;;;;;;3.30;2.50;;;;;;;19.03;74.17;102584.94;6018076;29;20239;-67
2023/09/24 12:37:44;;;;;;;1.52;1.42;;;;;;;18.59;73.57;102593.81;6019454;29;20246;-67
2023/09/24 12:41:07;;;;;;;2.65;2.28;;;;;;;16.99;77.58;102600.50;6015830;29;20657;-68
2023/09/24 12:44:27;;;;;;;1.90;1.80;;;;;;;18.18;76.73;102587.66;6018226;29;20262;-67
2023/09/24 12:47:48;;;;;;;2.33;2.10;;;;;;;18.30;74.78;102591.97;6023077;29;20234;-67
2023/09/24 12:51:09;;;;;;;2.05;1.60;;;;;;;18.54;73.40;102582.50;6021616;29;20247;-67
2023/09/24 12:54:30;;;;;;;2.28;1.88;;;;;;;19.67;72.11;102584.97;6017493;29;20258;-67
2023/09/24 12:57:52;;;;;;;2.17;1.98;;;;;;;19.61;68.06;102574.66;6015914;29;20614;-67
2023/09/24 13:01:13;;;;;;;2.10;1.90;;;;;;;20.60;69.76;102579.91;6018407;29;20235;-67
2023/09/24 13:04:37;;;;;;;3.20;2.80;;;;;;;24.05;57.73;102581.25;6014451;29;20271;-67
2023/09/24 13:07:58;;;;;;;1.90;1.77;;;;;;;24.56;53.64;102585.13;6017784;29;20246;-67
2023/09/24 13:11:20;;;;;;;2.10;1.90;;;;;;;20.22;62.34;102589.34;6019097;29;20242;-67
2023/09/24 13:14:42;;;;;;;1.73;1.63;;;;;;;20.88;61.93;102578.72;6015045;29;20242;-66
2023/09/24 13:18:05;;;;;;;2.20;2.05;;;;;;;18.17;69.44;102599.56;6016038;29;20242;-67
2023/09/24 13:21:26;;;;;;;3.45;2.28;;;;;;;17.82;73.10;102593.78;6015237;29;20234;-65
2023/09/24 13:24:46;;;;;;;2.40;1.63;;;;;;;18.96;71.90;102587.41;6002446;29;20339;-67
2023/09/24 13:28:07;;;;;;;2.10;1.63;;;;;;;18.79;70.18;102599.13;6013617;29;20901;-67
2023/09/24 13:31:30;;;;;;;4.78;2.47;;;;;;;18.53;70.21;102594.41;6015921;29;20250;-66
2023/09/24 13:34:51;;;;;;;2.72;1.90;;;;;;;18.54;71.92;102593.41;6012473;29;20321;-65
2023/09/24 13:38:12;;;;;;;3.63;1.48;;;;;;;24.36;56.13;102578.44;6010042;29;20238;-67
2023/09/24 13:41:33;;;;;;;2.20;1.42;;;;;;;26.75;47.83;102573.78;6016505;29;20262;-67
2023/09/24 13:44:54;;;;;;;1.33;1.23;;;;;;;23.80;50.14;102572.22;6018702;29;20238;-67
2023/09/24 13:48:16;;;;;;;1.63;1.00;;;;;;;23.91;52.30;102572.88;6017690;29;20266;-68
2023/09/24 13:51:41;;;;;;;2.13;1.67;;;;;;;22.24;52.93;102574.81;6017670;29;20314;-67
2023/09/24 13:55:02;;;;;;;1.40;1.20;;;;;;;22.66;56.11;102571.91;6022136;29;20570;-67
2023/09/24 13:58:23;;;;;;;2.83;1.50;;;;;;;24.78;51.01;102573.25;6021647;29;20238;-68
2023/09/24 14:01:44;;;;;;;3.00;1.20;;;;;;;25.82;47.08;102571.13;6011631;29;20235;-66
2023/09/24 14:05:08;;;;;;;2.10;1.70;;;;;;;23.20;51.16;102567.50;6003637;29;20544;-66
2023/09/24 14:12:20;;;;;;;2.30;1.48;;;;;;;24.99;48.76;102556.78;6018639;29;20239;-66
2023/09/24 14:15:42;;;;;;;1.17;1.10;;;;;;;24.85;47.44;102560.41;6018501;29;20238;-66
2023/09/24 14:19:03;;;;;;;1.50;1.10;;;;;;;24.96;47.08;102557.19;6008848;29;20427;-66
2023/09/24 14:22:25;;;;;;;1.55;1.48;;;;;;;24.58;49.49;102558.22;6015777;29;20242;-67
2023/09/24 14:25:46;;;;;;;1.80;1.70;;;;;;;24.09;50.46;102557.78;6013299;29;20255;-66
2023/09/24 14:29:07;;;;;;;1.20;1.02;;;;;;;24.78;50.14;102558.59;6017945;29;20231;-66
2023/09/24 14:32:28;;;;;;;3.78;1.35;;;;;;;26.34;46.47;102553.41;6018515;29;20238;-66
2023/09/24 14:35:57;;;;;;;3.03;1.10;;;;;;;25.97;46.30;102555.31;6018593;29;20676;-67
2023/09/24 14:39:19;;;;;;;1.23;1.13;;;;;;;22.20;52.79;102557.81;6021155;29;20280;-67
2023/09/24 14:42:40;;;;;;;1.35;1.25;;;;;;;22.85;52.97;102555.91;6008032;29;20239;-66
2023/09/24 14:46:02;;;;;;;1.20;1.10;;;;;;;24.12;50.08;102554.66;6006478;29;20342;-67
2023/09/24 14:49:23;;;;;;;2.83;1.30;;;;;;;23.47;51.53;102545.91;6007685;29;20336;-67
2023/09/24 14:52:44;;;;;;;1.40;1.30;;;;;;;23.38;52.75;102535.13;6005948;29;20257;-67
2023/09/24 14:56:06;;;;;;;2.90;1.65;;;;;;;23.80;52.32;102527.31;6028742;29;20294;-67
2023/09/24 14:59:27;;;;;;;3.50;1.17;;;;;;;24.00;51.62;102524.91;6011746;29;20317;-68
2023/09/24 15:02:48;;;;;;;1.08;1.05;;;;;;;22.16;54.33;102525.34;6012496;29;20246;-67
2023/09/24 15:06:09;;;;;;;2.60;1.02;;;;;;;21.54;56.22;102535.00;6019135;29;20234;-67
2023/09/24 15:09:30;;;;;;;2.63;1.50;;;;;;;21.44;57.35;102532.38;6009138;29;20247;-68
2023/09/24 15:12:54;;;;;;;1.65;1.17;;;;;;;21.20;58.67;102531.44;6018898;29;20343;-67
2023/09/24 15:16:14;;;;;;;2.13;1.98;;;;;;;20.27;60.72;102531.34;6018341;29;20242;-67
2023/09/24 15:19:35;;;;;;;1.25;1.15;;;;;;;20.52;60.48;102528.66;6003296;29;20234;-68
2023/09/24 15:22:56;;;;;;;1.25;1.20;;;;;;;20.10;61.74;102535.78;6013945;29;20242;-73
2023/09/24 15:26:17;;;;;;;1.13;1.00;;;;;;;20.53;61.18;102534.97;6019006;29;20234;-72
2023/09/24 15:29:40;;;;;;;1.20;1.10;;;;;;;20.88;59.18;102528.53;6015056;29;20234;-74
2023/09/24 15:33:01;;;;;;;3.15;1.15;;;;;;;20.27;60.81;102534.09;6005571;29;20283;-73
2023/09/24 15:36:22;;;;;;;1.73;1.35;;;;;;;20.78;61.17;102531.38;6014700;29;20237;-73
2023/09/24 15:39:43;;;;;;;1.65;1.55;;;;;;;20.31;60.69;102528.13;6006805;29;20250;-71